Time;durP1;ratioP1;P1;durP2;ratioP2;P2;SDS_P1;SDS_P2;PMS_P1;PMS_P2;Temp;Humidity;BMP_temperature;BMP_pressure;BME280_temperature;BME280_humidity;BME280_pressure;Samples;Min_cycle;Max_cycle;Signal;HPM_P1;HPM_P2
2022/04/02 00:01:57;;;;;;;3.17;2.28;;;3.50;96.00;;;;;;5045367;28;20029;-42
2022/04/02 00:04:22;;;;;;;4.40;2.15;;;3.50;95.80;;;;;;5046372;28;20036;-37
2022/04/02 00:06:48;;;;;;;3.92;2.22;;;3.40;95.80;;;;;;5045578;28;20028;-43
2022/04/02 00:09:13;;;;;;;2.97;1.90;;;3.50;95.90;;;;;;5045558;28;20576;-42
2022/04/02 00:11:39;;;;;;;2.65;2.03;;;3.50;95.90;;;;;;5046119;28;20024;-38
2022/04/02 00:14:04;;;;;;;2.33;2.13;;;3.50;95.90;;;;;;5045372;28;20363;-41
2022/04/02 00:16:30;;;;;;;2.33;2.10;;;3.40;95.90;;;;;;5044789;28;20027;-42
2022/04/02 00:18:55;;;;;;;4.85;2.25;;;3.40;96.00;;;;;;5045492;28;20465;-41
2022/04/02 00:21:21;;;;;;;3.50;2.45;;;3.40;96.00;;;;;;5046385;28;20033;-42
2022/04/02 00:23:46;;;;;;;3.55;2.00;;;3.40;96.00;;;;;;5044774;28;20495;-41
2022/04/02 00:26:20;;;;;;;6.05;2.55;;;3.40;95.90;;;;;;5046311;28;20036;-41
2022/04/02 00:28:48;;;;;;;3.45;2.10;;;3.40;96.00;;;;;;5045333;28;20392;-43
2022/04/02 00:31:14;;;;;;;4.57;2.30;;;3.40;96.00;;;;;;5044955;28;20025;-43
2022/04/02 00:33:41;;;;;;;4.25;2.15;;;3.30;96.00;;;;;;5045383;28;20039;-42
2022/04/02 00:36:07;;;;;;;3.15;2.08;;;3.40;96.00;;;;;;5045588;28;20025;-41
2022/04/02 00:38:34;;;;;;;2.80;2.10;;;3.30;96.00;;;;;;5045425;28;20045;-41
2022/04/02 00:40:59;;;;;;;4.28;2.50;;;3.30;96.10;;;;;;5044830;28;20037;-39
2022/04/02 00:43:28;;;;;;;4.60;2.28;;;3.30;96.00;;;;;;5044755;28;20414;-42
2022/04/02 00:45:58;;;;;;;2.20;1.85;;;3.30;96.00;;;;;;5045617;28;20063;-42
2022/04/02 00:48:24;;;;;;;3.40;2.22;;;3.30;96.00;;;;;;5045518;28;20060;-41
2022/04/02 00:50:55;;;;;;;2.42;2.08;;;3.30;96.10;;;;;;5043999;28;20378;-42
2022/04/02 00:53:22;;;;;;;3.03;2.10;;;3.30;96.20;;;;;;5045103;28;20107;-38
2022/04/02 00:55:49;;;;;;;5.40;2.13;;;3.30;96.00;;;;;;5045495;28;20432;-41
2022/04/02 00:58:15;;;;;;;4.28;2.30;;;3.30;96.20;;;;;;5044766;28;20024;-41
2022/04/02 01:00:41;;;;;;;2.50;1.88;;;3.30;96.20;;;;;;5045191;28;20037;-41
2022/04/02 01:03:08;;;;;;;4.85;2.28;;;3.30;96.20;;;;;;5045548;28;20104;-42
2022/04/02 01:05:38;;;;;;;2.85;1.98;;;3.30;96.10;;;;;;5044523;28;20027;-42
2022/04/02 01:08:05;;;;;;;7.15;2.70;;;3.30;96.10;;;;;;5044380;28;20476;-43
2022/04/02 01:10:31;;;;;;;2.53;2.17;;;3.30;96.20;;;;;;5045537;28;20135;-42
2022/04/02 01:12:57;;;;;;;2.97;2.25;;;3.30;96.20;;;;;;5043905;28;20487;-42
2022/04/02 01:15:22;;;;;;;3.78;2.30;;;3.20;96.10;;;;;;5045547;28;20025;-42
2022/04/02 01:17:48;;;;;;;5.22;2.25;;;3.20;96.20;;;;;;5044632;28;20047;-40
2022/04/02 01:20:15;;;;;;;5.20;2.47;;;3.20;96.10;;;;;;5044374;28;20083;-43
2022/04/02 01:22:41;;;;;;;2.50;2.30;;;3.30;96.10;;;;;;5044379;28;20033;-41
2022/04/02 01:25:08;;;;;;;5.70;2.40;;;3.20;96.00;;;;;;5044830;28;20361;-42
2022/04/02 01:27:34;;;;;;;2.80;2.50;;;3.20;96.00;;;;;;5044496;28;20479;-42
2022/04/02 01:30:00;;;;;;;2.25;1.90;;;3.20;96.30;;;;;;5044558;28;20033;-39
2022/04/02 01:32:25;;;;;;;4.78;2.33;;;3.20;96.00;;;;;;5045131;28;20033;-42
2022/04/02 01:34:51;;;;;;;2.78;1.73;;;3.20;96.10;;;;;;5044321;28;20036;-41
2022/04/02 01:37:17;;;;;;;3.60;1.95;;;3.20;96.20;;;;;;5045136;28;20025;-42
2022/04/02 01:39:43;;;;;;;3.45;2.30;;;3.20;96.20;;;;;;5043488;28;20033;-41
2022/04/02 01:42:09;;;;;;;2.88;2.35;;;3.20;96.30;;;;;;5044872;28;20366;-42
2022/04/02 01:44:35;;;;;;;2.70;1.95;;;3.20;96.20;;;;;;5044373;28;20032;-42
2022/04/02 01:47:00;;;;;;;3.00;2.10;;;3.10;96.30;;;;;;5043501;28;20087;-40
2022/04/02 01:49:26;;;;;;;2.67;1.92;;;3.10;96.30;;;;;;5044766;28;20037;-43
2022/04/02 01:51:52;;;;;;;5.05;2.17;;;3.10;96.30;;;;;;5043985;28;20166;-42
2022/04/02 01:54:19;;;;;;;3.70;2.42;;;3.10;96.30;;;;;;5043683;28;20106;-40
2022/04/02 01:56:45;;;;;;;2.70;2.20;;;3.10;96.20;;;;;;5043914;28;20849;-42
2022/04/02 01:59:11;;;;;;;3.88;2.47;;;3.10;96.30;;;;;;5044847;28;20104;-41
2022/04/02 02:01:36;;;;;;;4.32;2.38;;;3.10;96.40;;;;;;5044419;28;20025;-38
2022/04/02 02:04:02;;;;;;;3.10;1.90;;;3.00;96.40;;;;;;5043962;28;20036;-42
2022/04/02 02:06:28;;;;;;;2.72;2.00;;;3.10;96.40;;;;;;5044534;28;20099;-42
2022/04/02 02:08:53;;;;;;;3.33;2.38;;;3.10;96.40;;;;;;5043468;28;20527;-39
2022/04/02 02:11:19;;;;;;;3.15;2.20;;;3.00;96.40;;;;;;5044911;28;20029;-40
2022/04/02 02:13:44;;;;;;;4.22;2.50;;;3.10;96.40;;;;;;5046816;28;20388;-40
2022/04/02 02:16:10;;;;;;;3.97;2.17;;;3.00;96.40;;;;;;5047904;28;20487;-41
2022/04/02 02:18:35;;;;;;;3.60;2.20;;;3.00;96.50;;;;;;5048219;28;20075;-42
2022/04/02 02:21:01;;;;;;;2.65;1.90;;;3.00;96.50;;;;;;5047633;28;20025;-42
2022/04/02 02:23:27;;;;;;;3.92;2.15;;;3.00;96.60;;;;;;5047914;28;20024;-42
2022/04/02 02:25:52;;;;;;;4.30;2.25;;;3.00;96.60;;;;;;5047397;28;20435;-44
2022/04/02 02:28:18;;;;;;;4.07;2.17;;;3.00;96.60;;;;;;5028495;28;20045;-41
2022/04/02 02:30:45;;;;;;;3.03;2.25;;;3.00;96.60;;;;;;5040781;28;20032;-42
2022/04/02 02:35:55;;;;;;;2.90;2.13;;;2.90;96.60;;;;;;5046558;28;20040;-42
2022/04/02 02:38:21;;;;;;;3.35;2.33;;;2.90;96.70;;;;;;5048185;28;20388;-41
2022/04/02 02:40:48;;;;;;;4.82;2.47;;;2.90;96.80;;;;;;5047053;28;20029;-41
2022/04/02 02:43:14;;;;;;;5.05;2.50;;;2.90;96.70;;;;;;5046650;28;20278;-41
2022/04/02 02:45:40;;;;;;;2.60;2.10;;;2.90;96.80;;;;;;5047630;28;20564;-41
2022/04/02 02:48:06;;;;;;;3.80;1.95;;;2.90;96.80;;;;;;5048117;28;20044;-42
2022/04/02 02:50:32;;;;;;;2.55;2.33;;;2.90;96.80;;;;;;5047140;28;20045;-42
2022/04/02 02:52:58;;;;;;;4.32;2.17;;;2.90;96.90;;;;;;5047354;28;20028;-41
2022/04/02 02:55:23;;;;;;;4.75;2.28;;;2.90;96.90;;;;;;5046968;28;20738;-41
2022/04/02 02:57:52;;;;;;;6.10;2.65;;;2.90;96.90;;;;;;5046161;28;20041;-40
2022/04/02 03:00:19;;;;;;;2.45;2.08;;;2.80;96.90;;;;;;5047358;28;20040;-40
2022/04/02 03:02:45;;;;;;;4.32;2.30;;;2.80;96.90;;;;;;5047064;28;20100;-41
2022/04/02 03:05:17;;;;;;;2.40;2.08;;;2.80;96.90;;;;;;5047681;28;20112;-42
2022/04/02 03:07:51;;;;;;;3.03;1.98;;;2.80;97.00;;;;;;5046692;28;20028;-41
2022/04/02 03:10:18;;;;;;;4.53;2.60;;;2.80;97.00;;;;;;5048147;28;20032;-42
2022/04/02 03:12:44;;;;;;;3.90;2.30;;;2.80;97.00;;;;;;5045786;28;20024;-41
2022/04/02 03:15:11;;;;;;;3.10;2.30;;;2.80;97.00;;;;;;5046996;28;20507;-40
2022/04/02 03:17:37;;;;;;;3.17;2.10;;;2.70;97.10;;;;;;5047287;28;20194;-42
2022/04/02 03:20:04;;;;;;;3.20;2.03;;;2.70;97.10;;;;;;5045750;28;20464;-41
2022/04/02 03:22:30;;;;;;;3.28;2.40;;;2.70;97.10;;;;;;5046715;28;20025;-42
2022/04/02 03:24:59;;;;;;;2.45;2.00;;;2.70;97.20;;;;;;5046392;28;20099;-43
2022/04/02 03:27:25;;;;;;;2.55;2.03;;;2.70;97.30;;;;;;5046243;28;20050;-42
2022/04/02 03:29:50;;;;;;;2.78;2.10;;;2.70;97.30;;;;;;5047110;28;20366;-40
2022/04/02 03:32:18;;;;;;;3.50;2.30;;;2.70;97.60;;;;;;5046181;28;20017;-42
2022/04/02 03:34:44;;;;;;;5.90;2.42;;;2.60;97.40;;;;;;5046487;28;20026;-43
2022/04/02 03:37:10;;;;;;;2.95;2.25;;;2.60;97.40;;;;;;5046686;28;20468;-41
2022/04/02 03:39:35;;;;;;;4.22;2.00;;;2.60;97.50;;;;;;5046337;28;20025;-42
2022/04/02 03:42:01;;;;;;;3.17;1.90;;;2.60;97.50;;;;;;5046304;28;20396;-42
2022/04/02 03:44:27;;;;;;;2.90;2.10;;;2.60;97.50;;;;;;5046830;28;20037;-42
2022/04/02 03:47:10;;;;;;;5.10;2.10;;;2.60;97.60;;;;;;5045097;28;20021;-41
2022/04/02 03:49:45;;;;;;;2.38;2.15;;;2.60;97.60;;;;;;5046452;28;20477;-41
2022/04/02 03:52:11;;;;;;;5.97;3.35;;;2.60;97.70;;;;;;5046873;28;20511;-42
2022/04/02 03:54:38;;;;;;;4.15;2.30;;;2.60;97.70;;;;;;5045699;28;20017;-42
2022/04/02 03:57:12;;;;;;;3.10;2.30;;;2.60;97.80;;;;;;5045371;28;20033;-42
2022/04/02 03:59:37;;;;;;;2.83;2.15;;;2.50;97.80;;;;;;5043239;28;20048;-41
2022/04/02 04:02:06;;;;;;;3.33;2.15;;;2.50;97.80;;;;;;5045856;28;20523;-40
2022/04/02 04:04:32;;;;;;;3.58;2.70;;;2.60;97.80;;;;;;5046819;28;20017;-42
2022/04/02 04:06:59;;;;;;;4.22;2.50;;;2.50;97.80;;;;;;5046027;28;20027;-42
2022/04/02 04:09:24;;;;;;;3.47;2.53;;;2.50;97.90;;;;;;5044981;28;20029;-42
2022/04/02 04:11:50;;;;;;;3.83;2.42;;;2.50;97.80;;;;;;5045793;28;20522;-41
2022/04/02 04:14:16;;;;;;;3.60;2.50;;;2.50;97.80;;;;;;5045656;28;20086;-42
2022/04/02 04:16:45;;;;;;;3.67;2.30;;;2.50;97.80;;;;;;5045241;28;20025;-42
2022/04/02 04:19:10;;;;;;;2.63;2.20;;;2.50;97.80;;;;;;5045929;28;20079;-41
2022/04/02 04:21:36;;;;;;;3.60;2.22;;;2.50;97.80;;;;;;5045319;28;20029;-41
2022/04/02 04:24:03;;;;;;;4.18;2.13;;;2.50;97.80;;;;;;5045813;28;20103;-42
2022/04/02 04:26:29;;;;;;;3.90;2.60;;;2.50;97.80;;;;;;5045989;28;20028;-42
2022/04/02 04:28:54;;;;;;;3.75;2.42;;;2.50;97.90;;;;;;5044091;28;20615;-41
2022/04/02 04:31:20;;;;;;;3.38;2.15;;;2.50;97.90;;;;;;5046025;28;20036;-40
2022/04/02 04:33:46;;;;;;;3.65;1.90;;;2.50;97.90;;;;;;5044669;28;20560;-41
2022/04/02 04:36:12;;;;;;;4.13;2.40;;;2.50;98.00;;;;;;5044224;28;20059;-42
2022/04/02 04:38:38;;;;;;;3.75;2.13;;;2.50;98.00;;;;;;5045905;28;20297;-42
2022/04/02 04:41:03;;;;;;;3.35;2.20;;;2.40;98.00;;;;;;5045173;28;20538;-41
2022/04/02 04:43:30;;;;;;;2.88;2.20;;;2.40;98.00;;;;;;5044869;28;20136;-43
2022/04/02 04:45:56;;;;;;;3.08;2.10;;;2.40;98.10;;;;;;5044825;28;20047;-42
2022/04/02 04:48:24;;;;;;;3.63;2.00;;;2.40;98.10;;;;;;5045469;28;20488;-41
2022/04/02 04:50:49;;;;;;;3.38;2.15;;;2.40;98.20;;;;;;5044126;28;20492;-42
2022/04/02 04:53:15;;;;;;;4.35;2.30;;;2.40;98.20;;;;;;5045398;28;20032;-42
2022/04/02 04:55:41;;;;;;;2.60;2.38;;;2.40;98.20;;;;;;5044336;28;20049;-41
2022/04/02 04:58:07;;;;;;;4.28;2.40;;;2.40;98.20;;;;;;5044634;28;20079;-40
2022/04/02 05:00:32;;;;;;;3.47;2.40;;;2.40;98.10;;;;;;5045129;28;20025;-43
2022/04/02 05:02:58;;;;;;;3.25;2.42;;;2.40;98.20;;;;;;5044672;28;20388;-43
2022/04/02 05:05:26;;;;;;;2.58;1.90;;;2.40;98.40;;;;;;5044700;28;20029;-41
2022/04/02 05:07:52;;;;;;;4.10;2.33;;;2.40;98.20;;;;;;5044706;28;20110;-42
2022/04/02 05:10:18;;;;;;;8.25;2.75;;;2.40;98.20;;;;;;5044844;28;20457;-42
2022/04/02 05:12:43;;;;;;;3.42;2.30;;;2.40;98.20;;;;;;5044163;28;20128;-42
2022/04/02 05:15:09;;;;;;;4.55;2.60;;;2.40;98.30;;;;;;5045293;28;20029;-42
2022/04/02 05:17:38;;;;;;;3.70;1.98;;;2.40;98.30;;;;;;5044967;28;20033;-42
2022/04/02 05:20:13;;;;;;;6.32;2.70;;;2.40;98.30;;;;;;5044953;28;20032;-43
2022/04/02 05:22:39;;;;;;;5.47;2.50;;;2.40;98.40;;;;;;5044929;28;20064;-41
2022/04/02 05:25:05;;;;;;;4.90;2.80;;;2.40;98.40;;;;;;5043968;28;20108;-42
2022/04/02 05:27:32;;;;;;;4.32;2.60;;;2.40;98.50;;;;;;5045029;28;20064;-43
2022/04/02 05:29:58;;;;;;;3.38;2.50;;;2.40;98.50;;;;;;5044421;28;20029;-42
2022/04/02 05:32:24;;;;;;;4.43;2.75;;;2.30;98.50;;;;;;5043963;28;20040;-41
2022/04/02 05:34:50;;;;;;;5.47;2.67;;;2.30;98.60;;;;;;5044662;28;20076;-42
2022/04/02 05:37:15;;;;;;;4.13;2.42;;;2.30;98.70;;;;;;5045237;28;20051;-40
2022/04/02 05:39:41;;;;;;;4.05;2.55;;;2.30;98.70;;;;;;5024459;28;20048;-42
2022/04/02 05:42:07;;;;;;;3.53;2.70;;;2.30;98.80;;;;;;5039368;28;20333;-43
2022/04/02 05:44:33;;;;;;;6.35;2.72;;;2.30;98.90;;;;;;5044954;28;20476;-42
2022/04/02 05:46:58;;;;;;;4.35;2.80;;;2.30;98.90;;;;;;5043171;28;20073;-41
2022/04/02 05:49:24;;;;;;;3.15;2.30;;;2.30;99.00;;;;;;5049120;28;20029;-39
2022/04/02 05:51:49;;;;;;;3.88;2.60;;;2.30;99.00;;;;;;5048138;28;20024;-43
2022/04/02 05:54:15;;;;;;;5.28;3.00;;;2.30;99.00;;;;;;5048540;28;20143;-42
2022/04/02 05:56:42;;;;;;;3.92;2.53;;;2.30;99.10;;;;;;5048193;28;20068;-42
2022/04/02 05:59:08;;;;;;;4.18;2.70;;;2.30;99.10;;;;;;5048411;28;20029;-41
2022/04/02 06:01:35;;;;;;;4.32;2.80;;;2.30;99.10;;;;;;5047974;28;20089;-41
2022/04/02 06:04:01;;;;;;;5.50;3.22;;;2.30;99.10;;;;;;5048580;28;20021;-41
2022/04/02 06:06:26;;;;;;;3.28;2.60;;;2.30;99.20;;;;;;5048914;28;20024;-42
2022/04/02 06:08:52;;;;;;;3.63;2.63;;;2.30;99.20;;;;;;5047413;28;20068;-39
2022/04/02 06:11:17;;;;;;;3.13;2.58;;;2.30;99.20;;;;;;5048462;28;20108;-42
2022/04/02 06:13:43;;;;;;;5.00;3.00;;;2.30;99.20;;;;;;5047656;28;20067;-42
2022/04/02 06:16:08;;;;;;;4.32;2.65;;;2.30;99.20;;;;;;5047565;28;20389;-44
2022/04/02 06:18:35;;;;;;;4.20;2.55;;;2.30;99.30;;;;;;5048418;28;20040;-42
2022/04/02 06:21:03;;;;;;;4.28;2.75;;;2.40;99.30;;;;;;5047290;28;20506;-42
2022/04/02 06:23:29;;;;;;;3.42;2.72;;;2.40;99.30;;;;;;5047820;28;20074;-41
2022/04/02 06:25:55;;;;;;;5.30;2.47;;;2.40;99.40;;;;;;5047697;28;20453;-41
2022/04/02 06:28:21;;;;;;;3.20;2.35;;;2.40;99.40;;;;;;5047006;28;20095;-42
2022/04/02 06:30:46;;;;;;;4.32;2.70;;;2.50;99.40;;;;;;5047686;28;20036;-42
2022/04/02 06:33:12;;;;;;;4.93;3.10;;;2.50;99.30;;;;;;5048138;28;20020;-42
2022/04/02 06:35:37;;;;;;;4.22;3.33;;;2.60;99.30;;;;;;5047600;28;20477;-41
2022/04/02 06:38:03;;;;;;;3.58;3.17;;;2.60;99.40;;;;;;5047310;28;20499;-43
2022/04/02 06:40:28;;;;;;;6.30;2.97;;;2.70;99.40;;;;;;5047893;28;20037;-38
2022/04/02 06:42:57;;;;;;;4.55;2.95;;;2.80;99.40;;;;;;5046794;28;20036;-39
2022/04/02 06:45:23;;;;;;;3.33;2.78;;;2.80;99.40;;;;;;5049280;28;20227;-39
2022/04/02 06:47:49;;;;;;;5.47;3.30;;;2.90;99.40;;;;;;5047014;28;20119;-40
2022/04/02 06:50:15;;;;;;;4.85;2.90;;;2.90;99.30;;;;;;5047073;28;20129;-41
2022/04/02 06:52:42;;;;;;;4.32;3.05;;;3.00;99.40;;;;;;5047720;28;20048;-39
2022/04/02 06:55:08;;;;;;;4.95;3.03;;;3.00;99.30;;;;;;5044494;28;20098;-38
2022/04/02 06:57:48;;;;;;;4.35;3.05;;;3.10;99.40;;;;;;5045858;28;20049;-44
2022/04/02 07:00:14;;;;;;;4.18;2.90;;;3.10;99.40;;;;;;5045474;28;20424;-41
2022/04/02 07:02:40;;;;;;;4.93;3.10;;;3.20;99.30;;;;;;5047132;28;20037;-40
2022/04/02 07:05:06;;;;;;;4.13;2.90;;;3.20;99.30;;;;;;5045625;28;20036;-43
2022/04/02 07:07:32;;;;;;;5.28;3.35;;;3.30;99.30;;;;;;5047417;28;20052;-41
2022/04/02 07:09:57;;;;;;;5.43;3.90;;;3.30;99.40;;;;;;5046645;28;20025;-41
2022/04/02 07:12:23;;;;;;;5.22;3.42;;;3.40;99.40;;;;;;5046201;28;20119;-42
2022/04/02 07:14:48;;;;;;;4.75;3.50;;;3.50;99.30;;;;;;5045874;28;20021;-42
2022/04/02 07:17:14;;;;;;;6.47;3.05;;;3.50;99.30;;;;;;5046615;28;20029;-41
2022/04/02 07:19:40;;;;;;;7.05;3.30;;;3.60;99.30;;;;;;5046456;28;20436;-41
2022/04/02 07:22:10;;;;;;;5.85;3.63;;;3.50;99.30;;;;;;5047115;28;20036;-42
2022/04/02 07:24:40;;;;;;;6.10;3.30;;;3.60;99.40;;;;;;5045499;28;20033;-42
2022/04/02 07:27:07;;;;;;;6.45;3.70;;;3.60;99.50;;;;;;5046788;28;20020;-43
2022/04/02 07:29:33;;;;;;;6.22;3.28;;;3.60;99.50;;;;;;5046064;28;20029;-41
2022/04/02 07:31:59;;;;;;;5.20;3.70;;;3.60;99.60;;;;;;5045875;28;20036;-42
2022/04/02 07:34:25;;;;;;;5.95;4.13;;;3.60;99.50;;;;;;5046133;28;20028;-42
2022/04/02 07:37:10;;;;;;;4.65;3.40;;;3.70;99.60;;;;;;5042207;28;20591;-42
2022/04/02 07:39:50;;;;;;;4.72;3.13;;;3.70;99.50;;;;;;5046889;28;20187;-41
2022/04/02 07:42:59;;;;;;;3.50;3.08;;;3.70;99.40;;;;;;5045300;28;20139;-43
2022/04/02 07:45:32;;;;;;;4.70;3.45;;;3.80;99.50;;;;;;5015740;28;20026;-41
2022/04/02 07:47:58;;;;;;;;;;;3.80;99.50;;;;;;5042579;28;20124;-42
2022/04/02 07:50:25;;;;;;;4.18;3.05;;;3.80;99.40;;;;;;5049978;28;20020;-42
2022/04/02 07:52:54;;;;;;;4.45;2.92;;;3.90;99.40;;;;;;5034734;28;20931;-42
2022/04/02 07:55:22;;;;;;;4.18;3.10;;;4.00;99.40;;;;;;5046185;28;20049;-43
2022/04/02 07:57:50;;;;;;;4.72;3.08;;;4.10;99.40;;;;;;5046065;28;20512;-43
2022/04/02 08:00:19;;;;;;;4.57;3.17;;;4.10;99.40;;;;;;5046089;28;20036;-42
2022/04/02 08:02:46;;;;;;;5.15;3.42;;;4.20;99.40;;;;;;5042418;28;20028;-42
2022/04/02 08:05:16;;;;;;;5.47;3.50;;;4.30;99.30;;;;;;5046630;28;20033;-44
2022/04/02 08:07:49;;;;;;;5.07;2.95;;;4.40;99.30;;;;;;5044830;28;20535;-43
2022/04/02 08:10:17;;;;;;;5.75;3.40;;;4.40;99.20;;;;;;5046652;28;20124;-43
2022/04/02 08:12:43;;;;;;;5.43;3.40;;;4.40;99.10;;;;;;5045378;28;20456;-43
2022/04/02 08:15:12;;;;;;;4.15;3.15;;;4.50;99.10;;;;;;5046603;28;20032;-43
2022/04/02 08:17:41;;;;;;;4.82;3.20;;;4.60;99.10;;;;;;5046039;28;20098;-43
2022/04/02 08:20:08;;;;;;;6.30;3.13;;;4.70;99.30;;;;;;5046253;28;20101;-43
2022/04/02 08:22:34;;;;;;;4.80;3.00;;;4.80;98.90;;;;;;5045612;28;20033;-39
2022/04/02 08:24:59;;;;;;;5.68;3.53;;;4.80;98.90;;;;;;5045511;28;20036;-43
2022/04/02 08:27:38;;;;;;;6.05;4.00;;;4.90;98.70;;;;;;5046021;28;20574;-43
2022/04/02 08:30:13;;;;;;;6.03;4.10;;;4.80;98.60;;;;;;5046289;28;20047;-41
2022/04/02 08:32:45;;;;;;;6.85;4.50;;;4.80;98.40;;;;;;5045970;28;20781;-43
2022/04/02 08:35:12;;;;;;;5.63;4.20;;;4.70;98.50;;;;;;5045523;28;20051;-43
2022/04/02 08:37:37;;;;;;;4.30;3.42;;;4.70;98.50;;;;;;5046138;28;20506;-42
2022/04/02 08:40:35;;;;;;;5.65;4.00;;;4.80;98.70;;;;;;5045648;28;20045;-42
2022/04/02 08:43:38;;;;;;;6.80;4.07;;;4.80;98.60;;;;;;5045132;28;20025;-43
2022/04/02 08:46:09;;;;;;;11.00;5.10;;;5.00;98.60;;;;;;5045778;28;20122;-43
2022/04/02 08:48:35;;;;;;;9.25;4.50;;;5.00;98.40;;;;;;5046002;28;20099;-43
2022/04/02 08:51:29;;;;;;;7.15;5.40;;;5.10;98.30;;;;;;5045558;28;20124;-44
2022/04/02 08:54:05;;;;;;;;;;;5.20;98.20;;;;;;5045738;28;20029;-43
2022/04/02 08:56:37;;;;;;;6.65;4.40;;;5.30;98.00;;;;;;5044864;28;19928;-44
2022/04/02 08:59:08;;;;;;;6.95;4.75;;;5.40;98.00;;;;;;5045586;28;20083;-43
2022/04/02 09:02:02;;;;;;;7.20;4.25;;;5.50;98.00;;;;;;5045530;28;20487;-43
2022/04/02 09:04:41;;;;;;;4.90;3.97;;;5.60;97.70;;;;;;5044693;28;20473;-43
2022/04/02 09:07:25;;;;;;;5.47;3.88;;;5.70;97.00;;;;;;5045652;28;20178;-43
2022/04/02 09:10:20;;;;;;;6.20;4.30;;;5.70;97.30;;;;;;5043957;28;20028;-43
2022/04/02 09:13:06;;;;;;;6.43;3.97;;;5.80;97.30;;;;;;5045351;28;20115;-42
2022/04/02 09:16:02;;;;;;;4.85;3.45;;;5.90;97.40;;;;;;5045209;28;20071;-42
2022/04/02 09:18:37;;;;;;;4.85;3.97;;;6.20;97.20;;;;;;5044677;28;20115;-43
2022/04/02 09:21:29;;;;;;;7.35;4.28;;;6.20;96.50;;;;;;5045053;28;20166;-44
2022/04/02 09:24:11;;;;;;;6.00;4.15;;;6.10;96.40;;;;;;5043031;28;20040;-44
2022/04/02 09:26:59;;;;;;;5.88;3.90;;;6.20;96.40;;;;;;5045315;28;20575;-43
2022/04/02 09:29:29;;;;;;;5.25;4.15;;;6.20;96.20;;;;;;5045572;28;20240;-43
2022/04/02 09:32:40;;;;;;;6.40;4.22;;;6.10;95.50;;;;;;5044061;28;20114;-43
2022/04/02 09:35:26;;;;;;;5.55;3.50;;;6.10;95.80;;;;;;5035719;28;20069;-43
2022/04/02 09:37:57;;;;;;;4.43;3.53;;;6.00;95.50;;;;;;5022144;28;20030;-42
2022/04/02 09:40:35;;;;;;;4.70;3.35;;;5.90;95.30;;;;;;5041953;28;20060;-43
2022/04/02 09:43:13;;;;;;;4.47;2.95;;;5.80;95.70;;;;;;5044822;28;20111;-43
2022/04/02 09:46:11;;;;;;;4.45;3.70;;;5.80;95.70;;;;;;5044810;28;20107;-44
2022/04/02 09:49:06;;;;;;;5.35;3.70;;;5.90;95.10;;;;;;5045963;28;20492;-44
2022/04/02 09:51:34;;;;;;;5.53;3.72;;;6.00;95.10;;;;;;5021701;28;20106;-44
2022/04/02 09:54:12;;;;;;;5.40;3.25;;;6.00;94.60;;;;;;5041459;28;20494;-44
2022/04/02 09:56:45;;;;;;;4.93;3.30;;;6.10;94.80;;;;;;5042364;28;20122;-43
2022/04/02 09:59:39;;;;;;;4.85;3.53;;;6.30;94.50;;;;;;5044455;28;20091;-43
2022/04/02 10:02:05;;;;;;;5.85;3.20;;;6.40;94.50;;;;;;5044221;28;20028;-43
2022/04/02 10:04:40;;;;;;;4.35;3.22;;;6.40;93.30;;;;;;5045371;28;20079;-43
2022/04/02 10:07:21;;;;;;;5.43;3.25;;;6.40;93.30;;;;;;5043550;28;20753;-43
2022/04/02 10:09:53;;;;;;;3.03;2.75;;;6.40;92.60;;;;;;5044600;28;20123;-44
2022/04/02 10:12:19;;;;;;;4.05;2.78;;;6.40;92.50;;;;;;5045158;28;20055;-45
2022/04/02 10:14:50;;;;;;;4.50;3.50;;;6.40;92.30;;;;;;5044567;28;20025;-44
2022/04/02 10:17:22;;;;;;;4.47;3.30;;;6.40;92.00;;;;;;5041934;28;20044;-44
2022/04/02 10:19:52;;;;;;;3.60;2.73;;;6.40;91.40;;;;;;5044389;28;20063;-43
2022/04/02 10:22:22;;;;;;;4.07;2.55;;;6.40;90.70;;;;;;5044083;28;20490;-44
2022/04/02 10:24:50;;;;;;;3.78;2.38;;;6.50;91.00;;;;;;5044777;28;20029;-43
2022/04/02 10:27:37;;;;;;;3.58;2.00;;;6.50;90.40;;;;;;5043772;28;20374;-42
2022/04/02 10:30:14;;;;;;;2.40;1.75;;;6.50;90.20;;;;;;5044752;28;20043;-43
2022/04/02 10:32:51;;;;;;;3.42;1.90;;;6.60;88.30;;;;;;5044939;28;20023;-44
2022/04/02 10:35:17;;;;;;;4.10;2.08;;;6.70;87.90;;;;;;5046133;28;20500;-43
2022/04/02 10:37:53;;;;;;;2.60;1.70;;;6.80;86.90;;;;;;5047885;28;20013;-44
2022/04/02 10:40:21;;;;;;;3.53;2.03;;;6.90;85.90;;;;;;5048300;28;20040;-44
2022/04/02 10:43:06;;;;;;;1.88;1.63;;;6.90;86.20;;;;;;5047589;28;20036;-42
2022/04/02 10:45:36;;;;;;;4.70;2.05;;;7.00;86.90;;;;;;5028822;28;20072;-43
2022/04/02 10:48:05;;;;;;;3.75;2.47;;;7.00;87.00;;;;;;5047064;28;20068;-43
2022/04/02 10:50:32;;;;;;;4.38;2.20;;;7.00;87.00;;;;;;5047962;28;20021;-42
2022/04/02 10:53:01;;;;;;;4.38;2.35;;;6.90;86.70;;;;;;5046564;28;20388;-43
2022/04/02 10:55:27;;;;;;;2.53;2.10;;;6.90;86.70;;;;;;5047289;28;20037;-44
2022/04/02 10:57:55;;;;;;;2.85;1.90;;;6.80;86.80;;;;;;5046995;28;20506;-43
2022/04/02 11:00:21;;;;;;;3.60;2.05;;;6.80;86.20;;;;;;5048328;28;20045;-43
2022/04/02 11:02:49;;;;;;;2.85;2.30;;;6.70;86.10;;;;;;5046511;28;20036;-42
2022/04/02 11:05:19;;;;;;;2.90;2.08;;;6.70;86.10;;;;;;5047696;28;20021;-43
2022/04/02 11:07:48;;;;;;;2.55;1.83;;;6.70;85.70;;;;;;5047314;28;20155;-42
2022/04/02 11:10:17;;;;;;;4.05;2.30;;;6.80;86.70;;;;;;5047164;28;20029;-43
2022/04/02 11:12:44;;;;;;;2.40;1.73;;;6.90;86.40;;;;;;5047098;28;20119;-44
2022/04/02 11:15:14;;;;;;;2.17;1.67;;;7.00;87.30;;;;;;5048176;28;20025;-42
2022/04/02 11:17:46;;;;;;;3.30;2.25;;;7.10;86.50;;;;;;5046628;28;20477;-43
2022/04/02 11:20:18;;;;;;;4.73;2.10;;;7.20;85.80;;;;;;5047760;28;20468;-43
2022/04/02 11:22:54;;;;;;;3.08;1.88;;;7.20;85.10;;;;;;5046879;28;21181;-43
2022/04/02 11:25:21;;;;;;;2.97;1.92;;;7.20;85.40;;;;;;5046980;28;20634;-43
2022/04/02 11:27:50;;;;;;;4.88;2.53;;;7.20;85.10;;;;;;5046319;28;20139;-42
2022/04/02 11:30:18;;;;;;;2.70;1.98;;;7.10;84.40;;;;;;5047309;28;20114;-43
2022/04/02 11:32:48;;;;;;;2.08;1.83;;;7.10;83.80;;;;;;5046220;28;20017;-43
2022/04/02 11:35:16;;;;;;;3.05;1.95;;;7.10;83.80;;;;;;5036949;28;20041;-41
2022/04/02 11:38:08;;;;;;;2.67;1.70;;;7.10;84.00;;;;;;5045825;28;20377;-42
2022/04/02 11:40:38;;;;;;;2.45;1.80;;;7.20;83.30;;;;;;5036877;28;20059;-42
2022/04/02 11:43:03;;;;;;;2.38;1.65;;;7.20;83.50;;;;;;5046095;28;20063;-42
2022/04/02 11:45:30;;;;;;;5.32;2.53;;;7.30;84.00;;;;;;5046551;28;20420;-43
2022/04/02 11:48:08;;;;;;;5.45;2.17;;;7.30;82.50;;;;;;5046579;28;20033;-42
2022/04/02 11:50:37;;;;;;;3.78;2.20;;;7.30;80.70;;;;;;5047464;28;20025;-43
2022/04/02 11:53:03;;;;;;;3.70;2.55;;;7.20;81.60;;;;;;5045048;28;20573;-43
2022/04/02 11:55:34;;;;;;;3.90;2.72;;;7.20;80.80;;;;;;5042894;28;20067;-42
2022/04/02 11:58:07;;;;;;;6.00;2.58;;;7.20;81.60;;;;;;5046727;28;20068;-44
2022/04/02 12:00:36;;;;;;;4.40;2.20;;;7.20;82.50;;;;;;5045576;28;20112;-43
2022/04/02 12:03:02;;;;;;;3.05;2.10;;;7.20;82.10;;;;;;5046252;28;20136;-42
2022/04/02 12:05:42;;;;;;;4.63;2.60;;;7.30;81.70;;;;;;5046158;28;20377;-43
2022/04/02 12:08:09;;;;;;;3.90;1.85;;;7.30;81.20;;;;;;5047207;28;20033;-43
2022/04/02 12:10:44;;;;;;;2.22;1.80;;;7.30;81.70;;;;;;5046542;28;20036;-42
2022/04/02 12:13:10;;;;;;;3.00;2.28;;;7.20;82.60;;;;;;5046062;28;20029;-44
2022/04/02 12:15:36;;;;;;;3.33;2.03;;;7.10;83.30;;;;;;5046748;28;20112;-43
2022/04/02 12:18:03;;;;;;;3.65;1.88;;;7.00;83.90;;;;;;5045599;28;20120;-43
2022/04/02 12:20:39;;;;;;;3.60;2.00;;;7.10;84.00;;;;;;5045528;28;20023;-42
2022/04/02 12:23:13;;;;;;;2.88;1.92;;;7.10;83.90;;;;;;5046333;28;20108;-42
2022/04/02 12:25:45;;;;;;;4.70;1.70;;;7.20;84.10;;;;;;5046590;28;20052;-44
2022/04/02 12:28:14;;;;;;;3.22;2.10;;;7.30;84.40;;;;;;5045523;28;20839;-43
2022/04/02 12:30:43;;;;;;;2.55;2.10;;;7.40;84.40;;;;;;5045989;28;20049;-43
2022/04/02 12:33:15;;;;;;;3.28;2.08;;;7.30;84.60;;;;;;5046108;28;20049;-44
2022/04/02 12:35:47;;;;;;;3.60;2.22;;;7.30;85.00;;;;;;5044803;28;20036;-43
2022/04/02 12:38:30;;;;;;;2.90;2.17;;;7.20;85.10;;;;;;5046504;28;20523;-45
2022/04/02 12:40:58;;;;;;;5.18;2.22;;;7.20;84.40;;;;;;5044484;28;20059;-43
2022/04/02 12:43:26;;;;;;;4.22;2.35;;;7.10;84.20;;;;;;5046021;28;20021;-44
2022/04/02 12:45:51;;;;;;;2.60;1.90;;;7.00;84.50;;;;;;5045680;28;20104;-43
2022/04/02 12:48:20;;;;;;;2.40;1.73;;;7.00;85.10;;;;;;5045750;28;20041;-44
2022/04/02 12:50:52;;;;;;;3.05;2.08;;;7.00;85.60;;;;;;5045312;28;20380;-44
2022/04/02 12:53:36;;;;;;;3.38;2.30;;;7.00;86.00;;;;;;5045889;28;20124;-42
2022/04/02 12:56:07;;;;;;;3.08;2.03;;;7.00;87.50;;;;;;5044314;28;20059;-43
2022/04/02 12:58:41;;;;;;;3.13;2.13;;;7.00;87.20;;;;;;5044829;28;20483;-43
2022/04/02 13:01:15;;;;;;;2.33;2.13;;;6.90;87.70;;;;;;5045647;28;20094;-43
2022/04/02 13:03:59;;;;;;;3.38;2.10;;;6.90;87.90;;;;;;5044961;28;20037;-43
2022/04/02 13:06:25;;;;;;;4.05;1.90;;;6.90;88.00;;;;;;5045395;28;20033;-43
2022/04/02 13:09:04;;;;;;;2.17;1.60;;;6.90;86.80;;;;;;5045044;28;20072;-43
2022/04/02 13:11:58;;;;;;;2.67;1.90;;;6.90;86.40;;;;;;5045446;28;20111;-42
2022/04/02 13:14:46;;;;;;;2.40;1.83;;;6.90;85.60;;;;;;5045790;28;20717;-43